createdAt,value
2023-03-27T00:02:26.276Z,1.50
2023-03-27T00:04:56.038Z,1.50
2023-03-27T00:07:23.840Z,1.80
2023-03-27T00:09:53.422Z,1.50
2023-03-27T00:12:21.260Z,1.50
2023-03-27T00:14:49.073Z,1.50
2023-03-27T00:17:17.239Z,1.70
2023-03-27T00:19:45.044Z,1.50
2023-03-27T00:22:12.845Z,1.40
2023-03-27T00:24:40.710Z,1.40
2023-03-27T00:27:10.055Z,1.30
2023-03-27T00:29:37.975Z,1.50
2023-03-27T00:32:06.147Z,1.50
2023-03-27T00:34:33.995Z,1.50
2023-03-27T00:37:04.550Z,1.30
2023-03-27T00:39:32.434Z,1.50
2023-03-27T00:42:00.228Z,1.50
2023-03-27T00:44:34.370Z,1.50
2023-03-27T00:47:03.738Z,1.30
2023-03-27T00:49:35.362Z,1.30
2023-03-27T00:52:06.639Z,1.50
2023-03-27T00:54:40.356Z,1.30
2023-03-27T00:57:11.516Z,1.40
2023-03-27T00:59:42.256Z,1.30
2023-03-27T01:02:10.911Z,1.50
2023-03-27T01:04:40.753Z,1.60
2023-03-27T01:07:11.101Z,1.50
2023-03-27T01:09:39.135Z,1.40
2023-03-27T01:12:16.052Z,1.40
2023-03-27T01:14:56.110Z,1.40
2023-03-27T01:17:48.976Z,1.40
2023-03-27T01:20:48.449Z,1.40
2023-03-27T01:23:59.796Z,1.40
2023-03-27T01:27:06.517Z,1.30
2023-03-27T01:29:48.250Z,1.50
2023-03-27T01:32:49.631Z,1.20
2023-03-27T01:35:48.013Z,1.20
2023-03-27T01:39:07.228Z,1.20
2023-03-27T01:41:43.560Z,1.10
2023-03-27T01:44:16.653Z,1.20
2023-03-27T01:46:50.899Z,1.20
2023-03-27T01:49:24.014Z,1.20
2023-03-27T01:51:57.323Z,1.30
2023-03-27T01:54:27.988Z,1.40
2023-03-27T01:57:02.417Z,1.30
2023-03-27T01:59:35.869Z,1.20
2023-03-27T02:02:09.977Z,1.20
2023-03-27T02:04:44.373Z,1.10
2023-03-27T02:07:17.691Z,1.30
2023-03-27T02:09:49.381Z,1.20
2023-03-27T02:12:22.373Z,1.20
2023-03-27T02:14:55.270Z,0.90
2023-03-27T02:17:26.299Z,0.90
2023-03-27T02:19:59.183Z,1.20
2023-03-27T02:22:38.270Z,0.80
2023-03-27T02:25:25.867Z,0.90
2023-03-27T02:28:13.697Z,0.90
2023-03-27T02:31:05.655Z,1.00
2023-03-27T02:33:45.163Z,0.80
2023-03-27T02:36:22.337Z,1.00
2023-03-27T02:38:56.306Z,0.70
2023-03-27T02:41:31.506Z,1.00
2023-03-27T02:44:10.696Z,0.80
2023-03-27T02:46:45.437Z,1.00
2023-03-27T02:49:19.497Z,0.90
2023-03-27T02:51:52.107Z,1.00
2023-03-27T02:54:26.459Z,1.00
2023-03-27T02:56:58.291Z,1.00
2023-03-27T02:59:31.428Z,1.00
2023-03-27T03:02:01.328Z,0.90
2023-03-27T03:04:32.192Z,1.00
2023-03-27T03:07:04.223Z,0.90
2023-03-27T03:09:32.579Z,0.80
2023-03-27T03:12:00.698Z,0.90
2023-03-27T03:14:33.885Z,0.90
2023-03-27T03:17:01.793Z,0.90
2023-03-27T03:19:29.718Z,0.70
2023-03-27T03:21:57.599Z,0.80
2023-03-27T03:24:27.530Z,0.80
2023-03-27T03:26:55.300Z,0.90
2023-03-27T03:29:23.106Z,0.80
2023-03-27T03:31:52.318Z,0.90
2023-03-27T03:34:22.322Z,0.90
2023-03-27T03:36:50.419Z,0.70
2023-03-27T03:39:19.054Z,0.80
2023-03-27T03:41:46.932Z,0.80
2023-03-27T03:44:14.810Z,0.80
2023-03-27T03:46:42.622Z,0.90
2023-03-27T03:49:11.819Z,0.80
2023-03-27T03:51:39.616Z,0.70
2023-03-27T03:54:09.087Z,0.90
2023-03-27T03:56:38.296Z,0.80
2023-03-27T03:59:06.123Z,0.80
2023-03-27T04:01:33.943Z,0.70
2023-03-27T04:04:02.099Z,0.60
2023-03-27T04:06:32.432Z,0.80
2023-03-27T04:09:00.752Z,0.80
2023-03-27T04:11:28.565Z,0.70
2023-03-27T04:13:56.340Z,0.80
2023-03-27T04:16:24.312Z,0.80
2023-03-27T04:18:55.367Z,0.70
2023-03-27T04:21:26.421Z,0.50
2023-03-27T04:24:02.097Z,0.90
2023-03-27T04:26:30.130Z,0.60
2023-03-27T04:28:58.186Z,0.60
2023-03-27T04:31:26.138Z,0.60
2023-03-27T04:33:54.039Z,0.80
2023-03-27T04:36:22.458Z,0.80
2023-03-27T04:38:50.501Z,0.80
2023-03-27T04:41:21.145Z,0.90
2023-03-27T04:43:49.022Z,1.20
2023-03-27T04:46:16.933Z,0.80
2023-03-27T04:48:45.012Z,1.00
2023-03-27T04:51:12.987Z,1.00
2023-03-27T04:53:42.791Z,1.00
2023-03-27T04:56:11.142Z,1.00
2023-03-27T04:58:41.491Z,1.10
2023-03-27T05:01:10.011Z,0.90
2023-03-27T05:03:38.985Z,1.00
2023-03-27T05:06:08.296Z,1.00
2023-03-27T05:08:36.128Z,1.10
2023-03-27T05:11:04.141Z,1.00
2023-03-27T05:13:31.922Z,1.10
2023-03-27T05:16:01.929Z,1.00
2023-03-27T05:18:31.093Z,1.00
2023-03-27T05:20:59.207Z,1.10
2023-03-27T05:23:27.339Z,1.20
2023-03-27T05:25:59.693Z,1.40
2023-03-27T05:28:29.126Z,1.30
2023-03-27T05:30:57.491Z,1.40
2023-03-27T05:33:27.072Z,1.60
2023-03-27T05:35:54.951Z,1.50
2023-03-27T05:38:24.421Z,1.40
2023-03-27T05:40:52.407Z,1.40
2023-03-27T05:43:20.368Z,1.30
2023-03-27T05:45:48.233Z,1.40
2023-03-27T05:48:16.092Z,1.50
2023-03-27T05:50:45.292Z,1.20
2023-03-27T05:53:13.948Z,1.30
2023-03-27T05:55:41.767Z,1.20
2023-03-27T05:58:11.749Z,1.40
2023-03-27T06:00:41.889Z,1.20
2023-03-27T06:03:12.192Z,1.20
2023-03-27T06:05:41.454Z,1.30
2023-03-27T06:08:11.551Z,1.30
2023-03-27T06:10:41.959Z,1.30
2023-03-27T06:13:12.622Z,1.40
2023-03-27T06:15:42.662Z,1.30
2023-03-27T06:18:11.620Z,1.40
2023-03-27T06:20:39.965Z,1.50
2023-03-27T06:23:09.087Z,1.60
2023-03-27T06:25:39.857Z,1.60
2023-03-27T06:28:09.646Z,1.60
2023-03-27T06:30:38.712Z,1.70
2023-03-27T06:33:07.559Z,1.80
2023-03-27T06:35:36.472Z,2.00
2023-03-27T06:38:04.762Z,2.10
2023-03-27T06:40:35.165Z,2.10
2023-03-27T06:43:05.947Z,2.30
2023-03-27T06:45:35.569Z,2.40
2023-03-27T06:48:16.931Z,2.50
2023-03-27T06:50:50.290Z,2.60
2023-03-27T06:53:27.182Z,2.70
2023-03-27T06:55:56.364Z,2.50
2023-03-27T06:58:25.967Z,2.50
2023-03-27T07:00:53.829Z,2.50
2023-03-27T07:03:23.877Z,2.60
2023-03-27T07:05:51.853Z,2.60
2023-03-27T07:08:24.370Z,2.80
2023-03-27T07:11:10.005Z,2.60
2023-03-27T07:13:41.272Z,2.70
2023-03-27T07:16:11.854Z,2.80
2023-03-27T07:18:39.791Z,2.80
2023-03-27T07:21:08.483Z,3.00
2023-03-27T07:23:36.625Z,3.10
2023-03-27T07:26:04.750Z,3.20
2023-03-27T07:28:32.770Z,3.40
2023-03-27T07:31:16.785Z,3.30
2023-03-27T07:33:55.492Z,3.30
2023-03-27T07:36:23.348Z,3.50
2023-03-27T07:38:51.138Z,3.70
2023-03-27T07:41:19.531Z,3.50
2023-03-27T07:43:47.395Z,3.60
2023-03-27T07:46:16.627Z,3.70
2023-03-27T07:48:44.525Z,3.70
2023-03-27T07:51:14.136Z,3.70
2023-03-27T07:53:43.432Z,3.90
2023-03-27T07:56:11.783Z,3.90
2023-03-27T07:58:40.849Z,4.00
2023-03-27T08:01:08.810Z,4.00
2023-03-27T08:03:39.057Z,4.10
2023-03-27T08:06:07.970Z,4.10
2023-03-27T08:08:35.998Z,4.10
2023-03-27T08:11:04.989Z,4.10
2023-03-27T08:13:33.076Z,4.10
2023-03-27T08:16:06.367Z,4.30
2023-03-27T08:18:34.375Z,4.40
2023-03-27T08:21:05.584Z,4.50
2023-03-27T08:23:33.960Z,4.50
2023-03-27T08:26:03.596Z,4.60
2023-03-27T08:28:32.892Z,4.70
2023-03-27T08:31:02.510Z,4.90
2023-03-27T08:33:31.364Z,4.70
2023-03-27T08:35:59.536Z,5.10
2023-03-27T08:38:33.069Z,5.00
2023-03-27T08:41:03.783Z,5.20
2023-03-27T08:43:37.214Z,5.20
2023-03-27T08:46:09.717Z,5.30
2023-03-27T08:48:44.444Z,5.30
2023-03-27T08:51:16.225Z,5.30
2023-03-27T08:53:51.647Z,5.50
2023-03-27T08:56:21.562Z,5.40
2023-03-27T08:58:50.028Z,5.20
2023-03-27T09:01:24.181Z,5.40
2023-03-27T09:03:57.123Z,5.50
2023-03-27T09:06:27.678Z,5.70
2023-03-27T09:09:06.348Z,6.00
2023-03-27T09:11:47.246Z,5.90
2023-03-27T09:14:24.247Z,6.20
2023-03-27T09:16:53.640Z,6.10
2023-03-27T09:19:30.527Z,5.80
2023-03-27T09:22:05.628Z,6.10
2023-03-27T09:24:40.211Z,6.30
2023-03-27T09:27:18.211Z,6.30
2023-03-27T09:29:46.883Z,5.80
2023-03-27T09:32:16.798Z,5.70
2023-03-27T09:34:44.968Z,6.00
2023-03-27T09:37:17.517Z,6.00
2023-03-27T09:39:49.217Z,6.30
2023-03-27T09:42:21.805Z,6.30
2023-03-27T09:44:55.825Z,6.10
2023-03-27T09:47:31.729Z,6.20
2023-03-27T09:50:08.258Z,6.50
2023-03-27T09:52:37.676Z,6.80
2023-03-27T09:55:24.510Z,7.70
2023-03-27T09:57:58.421Z,7.70
2023-03-27T10:00:30.719Z,7.10
2023-03-27T10:03:12.327Z,7.30
2023-03-27T10:05:41.558Z,6.80
2023-03-27T10:08:31.128Z,6.60
2023-03-27T10:11:01.780Z,6.70
2023-03-27T10:13:31.510Z,6.60
2023-03-27T10:16:00.811Z,6.60
2023-03-27T10:18:31.385Z,6.60
2023-03-27T10:21:01.984Z,6.80
2023-03-27T10:23:42.022Z,6.60
2023-03-27T10:26:14.944Z,6.60
2023-03-27T10:28:48.904Z,6.70
2023-03-27T10:31:30.595Z,6.60
2023-03-27T10:34:01.602Z,6.80
2023-03-27T10:36:34.365Z,7.00
2023-03-27T10:39:06.634Z,7.20
2023-03-27T10:41:37.534Z,7.30
2023-03-27T10:44:14.485Z,7.70
2023-03-27T10:46:43.768Z,8.00
2023-03-27T10:49:19.602Z,8.40
2023-03-27T10:51:51.840Z,7.90
2023-03-27T10:54:34.003Z,7.40
2023-03-27T10:57:06.059Z,6.90
2023-03-27T10:59:42.210Z,6.00
2023-03-27T11:02:17.975Z,5.60
2023-03-27T11:04:53.033Z,5.30
2023-03-27T11:07:26.739Z,4.80
2023-03-27T11:10:06.822Z,4.20
2023-03-27T11:12:39.342Z,3.80
2023-03-27T11:15:13.776Z,3.70
2023-03-27T11:17:48.813Z,3.50
2023-03-27T11:20:25.794Z,3.60
2023-03-27T11:23:05.690Z,3.70
2023-03-27T11:25:41.991Z,4.00
2023-03-27T11:28:20.524Z,4.10
2023-03-27T11:30:55.967Z,4.30
2023-03-27T11:33:41.506Z,4.40
2023-03-27T11:36:30.706Z,4.60
2023-03-27T11:39:10.207Z,4.80
2023-03-27T11:41:38.030Z,5.30
2023-03-27T11:44:09.043Z,5.30
2023-03-27T11:47:04.542Z,5.30
2023-03-27T11:49:59.945Z,5.50
2023-03-27T11:52:36.895Z,5.70
2023-03-27T11:55:17.346Z,6.10
2023-03-27T11:58:04.163Z,6.00
2023-03-27T12:00:39.483Z,6.60
2023-03-27T12:03:31.635Z,7.10
2023-03-27T12:06:14.555Z,7.00
2023-03-27T12:09:05.973Z,6.90
2023-03-27T12:11:43.282Z,7.00
2023-03-27T12:14:41.135Z,7.00
2023-03-27T12:17:43.375Z,7.20
2023-03-27T12:20:53.967Z,6.50
2023-03-27T12:23:52.144Z,5.50
2023-03-27T12:26:42.283Z,4.40
2023-03-27T12:29:25.288Z,4.20
2023-03-27T12:32:17.539Z,4.50
2023-03-27T12:34:54.315Z,4.90
2023-03-27T12:37:29.787Z,5.10
2023-03-27T12:39:59.919Z,4.90
2023-03-27T12:42:44.425Z,5.00
2023-03-27T12:45:18.227Z,5.10
2023-03-27T12:47:47.014Z,5.30
2023-03-27T12:50:28.162Z,5.50
2023-03-27T12:52:56.812Z,5.50
2023-03-27T12:55:33.601Z,5.90
2023-03-27T12:58:03.418Z,6.30
2023-03-27T13:00:32.540Z,6.50
2023-03-27T13:03:27.573Z,6.80
2023-03-27T13:06:14.260Z,7.10
2023-03-27T13:08:54.269Z,7.30
2023-03-27T13:11:38.763Z,7.90
2023-03-27T13:14:43.888Z,7.80
2023-03-27T13:17:50.614Z,7.80
2023-03-27T13:20:28.525Z,8.00
2023-03-27T13:23:09.676Z,8.20
2023-03-27T13:25:53.480Z,8.40
2023-03-27T13:28:34.343Z,8.20
2023-03-27T13:31:04.372Z,7.80
2023-03-27T13:33:47.984Z,7.50
2023-03-27T13:36:19.711Z,7.30
2023-03-27T13:39:21.064Z,6.80
2023-03-27T13:42:02.784Z,6.70
2023-03-27T13:44:41.786Z,6.80
2023-03-27T13:47:29.096Z,6.90
2023-03-27T13:50:14.982Z,6.90
2023-03-27T13:53:12.134Z,7.00
2023-03-27T13:56:07.204Z,7.20
2023-03-27T13:58:51.310Z,7.80
2023-03-27T14:01:34.130Z,7.60
2023-03-27T14:04:57.229Z,8.20
2023-03-27T14:08:07.979Z,8.50
2023-03-27T14:11:05.923Z,8.60
2023-03-27T14:13:46.647Z,8.50
2023-03-27T14:16:50.213Z,8.60
2023-03-27T14:19:57.210Z,8.70
2023-03-27T14:22:29.114Z,8.90
2023-03-27T14:25:00.269Z,8.90
2023-03-27T14:27:30.814Z,8.90
2023-03-27T14:30:07.155Z,8.70
2023-03-27T14:32:35.515Z,8.60
2023-03-27T14:35:06.013Z,8.60
2023-03-27T14:37:36.707Z,8.30
2023-03-27T14:40:20.250Z,8.40
2023-03-27T14:42:52.545Z,8.00
2023-03-27T14:45:23.729Z,8.20
2023-03-27T14:47:57.261Z,8.40
2023-03-27T14:50:26.327Z,8.70
2023-03-27T14:52:55.524Z,8.80
2023-03-27T14:55:29.751Z,8.80
2023-03-27T14:58:10.837Z,9.10
2023-03-27T15:00:41.174Z,9.30
2023-03-27T15:03:14.541Z,9.40
2023-03-27T15:06:01.631Z,9.90
2023-03-27T15:08:34.848Z,9.20
2023-03-27T15:11:09.772Z,8.90
2023-03-27T15:13:39.012Z,8.80
2023-03-27T15:16:08.954Z,8.90
2023-03-27T15:18:41.923Z,8.70
2023-03-27T15:21:13.596Z,8.50
2023-03-27T15:23:44.829Z,8.30
2023-03-27T15:26:18.921Z,7.40
2023-03-27T15:29:01.720Z,7.00
2023-03-27T15:31:30.764Z,6.80
2023-03-27T15:34:03.200Z,6.70
2023-03-27T15:36:33.053Z,6.50
2023-03-27T15:39:02.496Z,6.60
2023-03-27T15:41:43.934Z,6.30
2023-03-27T15:44:20.348Z,6.20
2023-03-27T15:46:53.011Z,6.00
2023-03-27T15:49:28.493Z,5.80
2023-03-27T15:51:56.838Z,5.70
2023-03-27T15:54:30.790Z,5.40
2023-03-27T15:57:10.352Z,5.50
2023-03-27T15:59:51.999Z,5.60
2023-03-27T16:02:22.758Z,5.40
2023-03-27T16:04:53.492Z,5.60
2023-03-27T16:07:25.018Z,5.90
2023-03-27T16:09:56.025Z,6.30
2023-03-27T16:12:30.117Z,6.50
2023-03-27T16:15:01.464Z,6.80
2023-03-27T16:17:34.341Z,6.90
2023-03-27T16:20:07.942Z,7.10
2023-03-27T16:22:37.635Z,7.00
2023-03-27T16:25:08.505Z,7.20
2023-03-27T16:27:38.951Z,7.10
2023-03-27T16:30:21.105Z,6.90
2023-03-27T16:32:48.968Z,6.90
2023-03-27T16:35:17.273Z,6.60
2023-03-27T16:37:45.176Z,6.60
2023-03-27T16:40:13.448Z,6.40
2023-03-27T16:42:41.770Z,6.40
2023-03-27T16:45:19.521Z,6.20
2023-03-27T16:47:50.713Z,6.10
2023-03-27T16:50:22.822Z,5.80
2023-03-27T16:52:50.731Z,5.90
2023-03-27T16:55:18.761Z,5.60
2023-03-27T16:57:47.026Z,5.40
2023-03-27T17:00:16.770Z,5.60
2023-03-27T17:02:46.916Z,5.50
2023-03-27T17:05:15.609Z,5.60
2023-03-27T17:07:44.735Z,5.70
2023-03-27T17:10:12.726Z,5.60
2023-03-27T17:12:40.769Z,5.40
2023-03-27T17:15:09.938Z,5.30
2023-03-27T17:17:37.837Z,5.40
2023-03-27T17:20:08.651Z,5.20
2023-03-27T17:22:36.606Z,5.10
2023-03-27T17:25:05.860Z,5.30
2023-03-27T17:27:34.310Z,5.10
2023-03-27T17:30:02.186Z,5.10
2023-03-27T17:32:30.264Z,5.00
2023-03-27T17:34:58.292Z,5.00
2023-03-27T17:37:27.500Z,4.90
2023-03-27T17:39:55.887Z,4.70
2023-03-27T17:42:24.050Z,5.00
2023-03-27T17:44:51.885Z,4.80
2023-03-27T17:47:19.833Z,4.70
2023-03-27T17:49:47.712Z,4.70
2023-03-27T17:52:15.738Z,4.50
2023-03-27T17:54:44.936Z,4.70
2023-03-27T17:57:12.786Z,4.50
2023-03-27T17:59:40.672Z,4.50
2023-03-27T18:02:09.080Z,4.70
2023-03-27T18:04:36.964Z,4.60
2023-03-27T18:07:04.793Z,4.60
2023-03-27T18:09:32.691Z,4.50
2023-03-27T18:12:02.003Z,4.50
2023-03-27T18:14:29.821Z,4.80
2023-03-27T18:16:57.603Z,4.60
2023-03-27T18:19:25.784Z,4.50
2023-03-27T18:21:53.618Z,4.20
2023-03-27T18:24:21.464Z,4.10
2023-03-27T18:26:49.280Z,3.90
2023-03-27T18:29:21.018Z,4.00
2023-03-27T18:31:49.062Z,4.00
2023-03-27T18:34:17.122Z,4.00
2023-03-27T18:36:50.571Z,3.90
2023-03-27T18:39:18.552Z,3.80
2023-03-27T18:41:46.416Z,3.60
2023-03-27T18:44:14.762Z,3.60
2023-03-27T18:46:43.953Z,3.70
2023-03-27T18:49:23.760Z,3.90
2023-03-27T18:51:52.557Z,3.60
2023-03-27T18:54:20.380Z,3.70
2023-03-27T18:56:48.670Z,3.80
2023-03-27T18:59:16.671Z,3.70
2023-03-27T19:01:46.028Z,3.80
2023-03-27T19:04:16.447Z,3.80
2023-03-27T19:06:46.141Z,3.80
2023-03-27T19:09:14.187Z,3.60
2023-03-27T19:11:43.666Z,3.60
2023-03-27T19:14:11.972Z,3.50
2023-03-27T19:16:39.911Z,3.50
2023-03-27T19:19:09.102Z,3.50
2023-03-27T19:21:36.929Z,3.50
2023-03-27T19:24:05.179Z,3.40
2023-03-27T19:26:37.198Z,3.20
2023-03-27T19:29:06.458Z,3.30
2023-03-27T19:31:34.494Z,3.50
2023-03-27T19:34:02.833Z,3.10
2023-03-27T19:36:32.786Z,3.10
2023-03-27T19:39:00.998Z,3.20
2023-03-27T19:41:28.887Z,3.20
2023-03-27T19:43:59.674Z,3.20
2023-03-27T19:46:28.994Z,3.00
2023-03-27T19:48:56.983Z,3.10
2023-03-27T19:51:24.820Z,3.00
2023-03-27T19:53:55.367Z,3.20
2023-03-27T19:56:23.411Z,3.00
2023-03-27T19:58:52.115Z,3.00
2023-03-27T20:01:21.371Z,2.90
2023-03-27T20:03:49.489Z,2.90
2023-03-27T20:06:19.350Z,2.90
2023-03-27T20:08:47.276Z,2.80
2023-03-27T20:11:16.567Z,2.90
2023-03-27T20:13:55.342Z,2.90
2023-03-27T20:16:25.988Z,2.80
2023-03-27T20:19:03.066Z,2.70
2023-03-27T20:21:32.733Z,2.80
2023-03-27T20:24:00.738Z,2.80
2023-03-27T20:26:32.407Z,2.70
2023-03-27T20:29:00.344Z,2.60
2023-03-27T20:31:28.257Z,2.90
2023-03-27T20:33:56.116Z,2.50
2023-03-27T20:36:23.972Z,2.60
2023-03-27T20:38:52.637Z,2.50
2023-03-27T20:41:21.724Z,2.60
2023-03-27T20:43:51.115Z,2.70
2023-03-27T20:46:18.981Z,2.50
2023-03-27T20:48:54.113Z,2.50
2023-03-27T20:51:24.241Z,2.60
2023-03-27T20:53:55.861Z,2.60
2023-03-27T20:56:24.439Z,2.50
2023-03-27T20:58:53.627Z,2.60
2023-03-27T21:01:27.633Z,2.50
2023-03-27T21:03:58.004Z,2.40
2023-03-27T21:06:25.879Z,2.60
2023-03-27T21:08:53.753Z,2.50
2023-03-27T21:11:21.558Z,2.50
2023-03-27T21:13:50.376Z,2.60
2023-03-27T21:16:19.571Z,2.40
2023-03-27T21:18:47.506Z,2.40
2023-03-27T21:21:15.675Z,2.50
2023-03-27T21:23:43.568Z,2.40
2023-03-27T21:26:11.443Z,2.50
2023-03-27T21:28:39.313Z,2.40
2023-03-27T21:31:07.867Z,2.50
2023-03-27T21:33:37.523Z,2.60
2023-03-27T21:36:06.253Z,2.60
2023-03-27T21:38:34.235Z,2.60
2023-03-27T21:41:02.904Z,2.40
2023-03-27T21:43:30.788Z,2.40
2023-03-27T21:46:00.027Z,2.40
2023-03-27T21:48:28.197Z,2.50
2023-03-27T21:51:00.859Z,2.30
2023-03-27T21:53:28.737Z,2.30
2023-03-27T21:55:57.461Z,2.40
2023-03-27T21:58:25.667Z,2.30
2023-03-27T22:00:56.022Z,2.20
2023-03-27T22:03:23.998Z,2.20
2023-03-27T22:06:07.799Z,2.10
2023-03-27T22:08:41.412Z,1.90
2023-03-27T22:11:09.740Z,2.00
2023-03-27T22:13:38.058Z,2.00
2023-03-27T22:16:09.348Z,2.00
2023-03-27T22:18:37.324Z,2.00
2023-03-27T22:21:16.376Z,1.90
2023-03-27T22:23:46.186Z,2.00
2023-03-27T22:26:14.113Z,2.10
2023-03-27T22:28:41.920Z,2.00
2023-03-27T22:31:09.961Z,2.00
2023-03-27T22:33:38.319Z,2.00
2023-03-27T22:36:09.559Z,1.90
2023-03-27T22:38:37.626Z,2.10
2023-03-27T22:41:08.386Z,1.90
2023-03-27T22:43:36.418Z,2.00
2023-03-27T22:46:06.765Z,1.90
2023-03-27T22:48:34.801Z,1.90
2023-03-27T22:51:03.038Z,1.80
2023-03-27T22:53:32.417Z,1.90
2023-03-27T22:56:01.245Z,1.80
2023-03-27T22:58:31.676Z,1.60
2023-03-27T23:01:00.439Z,1.80
2023-03-27T23:03:28.755Z,1.60
2023-03-27T23:05:56.912Z,1.50
2023-03-27T23:08:28.151Z,1.40
2023-03-27T23:10:56.978Z,1.70
2023-03-27T23:13:25.424Z,1.50
2023-03-27T23:15:54.831Z,1.40
2023-03-27T23:18:24.525Z,1.30
2023-03-27T23:20:56.492Z,1.50
2023-03-27T23:23:25.458Z,1.30
2023-03-27T23:25:53.339Z,1.30
2023-03-27T23:28:21.488Z,1.30
2023-03-27T23:30:58.779Z,1.20
2023-03-27T23:33:26.927Z,1.20
2023-03-27T23:36:02.033Z,1.20
2023-03-27T23:38:30.344Z,1.10
2023-03-27T23:40:59.438Z,1.10
2023-03-27T23:43:28.796Z,1.10
2023-03-27T23:45:59.277Z,1.10
2023-03-27T23:48:28.173Z,1.00
2023-03-27T23:50:56.846Z,1.10
2023-03-27T23:53:26.415Z,1.20
2023-03-27T23:55:56.003Z,1.00
2023-03-27T23:58:24.218Z,1.00
